In Rescue
 
Open Full Screen Window  High Contrast Mode
Wind Gusting 00 knots
07
September 22, 2020 1:10 AM EDT
Weather Information
Wind Direction
  150 °
Wind Speed
  07 kt (8 mph)
Wind Gust
  00 kt (0 mph)
Altimeter
30.29 in
Visibility
10 SM
Temperature
11° C
52° F
Dewpoint
06° C
43° F
Humidity
72%
1hr Rain Fall
00.00 in.
24hr Rain Fall
00.00 in.
Sky Condition
Clear
VFR

METAR KY70 220510Z AUTO 15007KT 10SM CLR 11/06 A3029 RMK AO2

FAA Disclaimer: The data displayed is for advisory purposes only and is not to be used for flight planning or operations.